﻿<?xml version="1.0" encoding="UTF-8" standalone="no"?>
<gpx xmlns="http://www.topografix.com/GPX/1/1" xmlns:gpxtpx="http://www.garmin.com/xmlschemas/TrackPointExtension/v1" xmlns:xsi="http://www.w3.org/2001/XMLSchema-instance" creator="Hribi.net" version="1.1" xsi:schemaLocation="http://www.topografix.com/GPX/1/1 http://www.topografix.com/GPX/1/1/gpx.xsd http://www.garmin.com/xmlschemas/TrackPointExtension/v1 http://www.garmin.com/xmlschemas/TrackPointExtensionv1.xsd">
  <metadata>
    <name>GPS sled</name>
    <desc>www.hribi.net</desc>
    <author>
      <name>hribi.net</name>
    </author>
    <link href="http://www.hribi.net">
      <text>Hribi.net</text>
    </link>
  </metadata>
  <trk>
    <trkseg>
      <trkpt lat="46.430874" lon="14.260786">
        <ele>1049.637236256</ele>
        <time>2014-06-15T05:31:56Z</time>
      </trkpt>
      <trkpt lat="46.430480" lon="14.261111">
        <ele>1050.2172292032</ele>
        <time>2014-06-15T05:36:13Z</time>
      </trkpt>
      <trkpt lat="46.429642" lon="14.261437">
        <ele>1066.9770254016</ele>
        <time>2014-06-15T05:38:47Z</time>
      </trkpt>
      <trkpt lat="46.429011" lon="14.263035">
        <ele>1059.3571180608</ele>
        <time>2014-06-15T05:40:29Z</time>
      </trkpt>
      <trkpt lat="46.428667" lon="14.264673">
        <ele>1053.2971917504</ele>
        <time>2014-06-15T05:42:31Z</time>
      </trkpt>
      <trkpt lat="46.428169" lon="14.264750">
        <ele>1057.6571387328</ele>
        <time>2014-06-15T05:47:53Z</time>
      </trkpt>
      <trkpt lat="46.427158" lon="14.265323">
        <ele>1061.7170893632</ele>
        <time>2014-06-15T05:50:10Z</time>
      </trkpt>
      <trkpt lat="46.426568" lon="14.265966">
        <ele>1064.8970506944</ele>
        <time>2014-06-15T05:52:34Z</time>
      </trkpt>
      <trkpt lat="46.425464" lon="14.265962">
        <ele>1060.7271014016</ele>
        <time>2014-06-15T05:54:18Z</time>
      </trkpt>
      <trkpt lat="46.424639" lon="14.266736">
        <ele>1059.4271172096</ele>
        <time>2014-06-15T05:59:07Z</time>
      </trkpt>
      <trkpt lat="46.423087" lon="14.266541">
        <ele>1060.6571022528</ele>
        <time>2014-06-15T06:01:19Z</time>
      </trkpt>
      <trkpt lat="46.422414" lon="14.265571">
        <ele>1060.4771044416</ele>
        <time>2014-06-15T06:02:59Z</time>
      </trkpt>
      <trkpt lat="46.421740" lon="14.264454">
        <ele>1060.6171027392</ele>
        <time>2014-06-15T06:04:51Z</time>
      </trkpt>
      <trkpt lat="46.420607" lon="14.264128">
        <ele>1059.2471193984</ele>
        <time>2014-06-15T06:06:39Z</time>
      </trkpt>
      <trkpt lat="46.419534" lon="14.264635">
        <ele>1080.8168571072</ele>
        <time>2014-06-15T06:08:50Z</time>
      </trkpt>
      <trkpt lat="46.418636" lon="14.263851">
        <ele>1095.036684192</ele>
        <time>2014-06-15T06:12:00Z</time>
      </trkpt>
      <trkpt lat="46.417925" lon="14.262773">
        <ele>1102.536592992</ele>
        <time>2014-06-15T06:14:06Z</time>
      </trkpt>
      <trkpt lat="46.417004" lon="14.260992">
        <ele>1123.4063392128</ele>
        <time>2014-06-15T06:16:33Z</time>
      </trkpt>
      <trkpt lat="46.415974" lon="14.259370">
        <ele>1142.1161116992</ele>
        <time>2014-06-15T06:19:07Z</time>
      </trkpt>
      <trkpt lat="46.415132" lon="14.257774">
        <ele>1163.7158490432</ele>
        <time>2014-06-15T06:21:40Z</time>
      </trkpt>
      <trkpt lat="46.414529" lon="14.256501">
        <ele>1181.8656283392</ele>
        <time>2014-06-15T06:23:49Z</time>
      </trkpt>
      <trkpt lat="46.413424" lon="14.255263">
        <ele>1203.0453707904</ele>
        <time>2014-06-15T06:26:30Z</time>
      </trkpt>
      <trkpt lat="46.413425" lon="14.253571">
        <ele>1226.585084544</ele>
        <time>2014-06-15T06:29:19Z</time>
      </trkpt>
      <trkpt lat="46.413290" lon="14.252039">
        <ele>1242.3048933888</ele>
        <time>2014-06-15T06:32:13Z</time>
      </trkpt>
      <trkpt lat="46.412582" lon="14.251166">
        <ele>1254.7947415104</ele>
        <time>2014-06-15T06:34:44Z</time>
      </trkpt>
      <trkpt lat="46.412502" lon="14.249652">
        <ele>1254.5747441856</ele>
        <time>2014-06-15T06:36:35Z</time>
      </trkpt>
      <trkpt lat="46.411944" lon="14.247791">
        <ele>1255.1747368896</ele>
        <time>2014-06-15T06:38:24Z</time>
      </trkpt>
      <trkpt lat="46.411528" lon="14.246088">
        <ele>1255.1947366464</ele>
        <time>2014-06-15T06:40:07Z</time>
      </trkpt>
      <trkpt lat="46.411234" lon="14.244723">
        <ele>1275.6744876096</ele>
        <time>2014-06-15T06:42:51Z</time>
      </trkpt>
      <trkpt lat="46.410713" lon="14.243224">
        <ele>1303.684147008</ele>
        <time>2014-06-15T06:45:36Z</time>
      </trkpt>
      <trkpt lat="46.410252" lon="14.243366">
        <ele>1311.2340552</ele>
        <time>2014-06-15T06:51:04Z</time>
      </trkpt>
      <trkpt lat="46.410281" lon="14.243386">
        <ele>1310.6240626176</ele>
        <time>2014-06-15T06:53:00Z</time>
      </trkpt>
      <trkpt lat="46.410235" lon="14.243398">
        <ele>1311.3540537408</ele>
        <time>2014-06-15T06:57:54Z</time>
      </trkpt>
      <trkpt lat="46.410898" lon="14.243145">
        <ele>1305.23412816</ele>
        <time>2014-06-15T07:00:50Z</time>
      </trkpt>
      <trkpt lat="46.411513" lon="14.243104">
        <ele>1329.1138377792</ele>
        <time>2014-06-15T07:04:41Z</time>
      </trkpt>
      <trkpt lat="46.412146" lon="14.242975">
        <ele>1367.8433668224</ele>
        <time>2014-06-15T07:08:29Z</time>
      </trkpt>
      <trkpt lat="46.412600" lon="14.242498">
        <ele>1411.2628388352</ele>
        <time>2014-06-15T07:12:45Z</time>
      </trkpt>
      <trkpt lat="46.413006" lon="14.242412">
        <ele>1434.882551616</ele>
        <time>2014-06-15T07:16:54Z</time>
      </trkpt>
      <trkpt lat="46.413709" lon="14.242385">
        <ele>1471.7221036416</ele>
        <time>2014-06-15T07:21:01Z</time>
      </trkpt>
      <trkpt lat="46.414316" lon="14.242388">
        <ele>1505.431693728</ele>
        <time>2014-06-15T07:26:30Z</time>
      </trkpt>
      <trkpt lat="46.415090" lon="14.242654">
        <ele>1538.9112866112</ele>
        <time>2014-06-15T07:30:25Z</time>
      </trkpt>
      <trkpt lat="46.415536" lon="14.242498">
        <ele>1577.8608129792</ele>
        <time>2014-06-15T07:35:22Z</time>
      </trkpt>
      <trkpt lat="46.416208" lon="14.242436">
        <ele>1621.3102846272</ele>
        <time>2014-06-15T07:41:05Z</time>
      </trkpt>
      <trkpt lat="46.416862" lon="14.242439">
        <ele>1665.6097459392</ele>
        <time>2014-06-15T07:46:17Z</time>
      </trkpt>
      <trkpt lat="46.417474" lon="14.242599">
        <ele>1703.5892841024</ele>
        <time>2014-06-15T07:52:47Z</time>
      </trkpt>
      <trkpt lat="46.417882" lon="14.242402">
        <ele>1747.9187450496</ele>
        <time>2014-06-15T07:59:50Z</time>
      </trkpt>
      <trkpt lat="46.418483" lon="14.242372">
        <ele>1794.7481755968</ele>
        <time>2014-06-15T08:06:16Z</time>
      </trkpt>
      <trkpt lat="46.419002" lon="14.242490">
        <ele>1835.7976764288</ele>
        <time>2014-06-15T08:18:36Z</time>
      </trkpt>
      <trkpt lat="46.419699" lon="14.241947">
        <ele>1880.6471310528</ele>
        <time>2014-06-15T08:25:11Z</time>
      </trkpt>
      <trkpt lat="46.420148" lon="14.240711">
        <ele>1908.276795072</ele>
        <time>2014-06-15T08:29:22Z</time>
      </trkpt>
      <trkpt lat="46.420632" lon="14.239634">
        <ele>1955.3162230656</ele>
        <time>2014-06-15T08:35:23Z</time>
      </trkpt>
      <trkpt lat="46.420676" lon="14.238086">
        <ele>1950.1462859328</ele>
        <time>2014-06-15T08:38:52Z</time>
      </trkpt>
      <trkpt lat="46.420911" lon="14.236717">
        <ele>1949.6862915264</ele>
        <time>2014-06-15T08:42:28Z</time>
      </trkpt>
      <trkpt lat="46.421449" lon="14.235410">
        <ele>1974.2159932416</ele>
        <time>2014-06-15T08:45:57Z</time>
      </trkpt>
      <trkpt lat="46.421580" lon="14.233942">
        <ele>2011.2055434432</ele>
        <time>2014-06-15T08:52:21Z</time>
      </trkpt>
      <trkpt lat="46.421817" lon="14.232560">
        <ele>2029.125325536</ele>
        <time>2014-06-15T09:00:05Z</time>
      </trkpt>
      <trkpt lat="46.421578" lon="14.231294">
        <ele>2021.9854123584</ele>
        <time>2014-06-15T09:02:25Z</time>
      </trkpt>
      <trkpt lat="46.421684" lon="14.229776">
        <ele>2045.6351247744</ele>
        <time>2014-06-15T09:05:56Z</time>
      </trkpt>
      <trkpt lat="46.421316" lon="14.229343">
        <ele>2009.3955654528</ele>
        <time>2014-06-15T09:43:56Z</time>
      </trkpt>
      <trkpt lat="46.420979" lon="14.228066">
        <ele>1982.9858865984</ele>
        <time>2014-06-15T09:47:50Z</time>
      </trkpt>
      <trkpt lat="46.420610" lon="14.227094">
        <ele>1958.0361899904</ele>
        <time>2014-06-15T09:51:45Z</time>
      </trkpt>
      <trkpt lat="46.420474" lon="14.225822">
        <ele>1933.9364830464</ele>
        <time>2014-06-15T09:54:25Z</time>
      </trkpt>
      <trkpt lat="46.420070" lon="14.224529">
        <ele>1915.3467091008</ele>
        <time>2014-06-15T09:56:47Z</time>
      </trkpt>
      <trkpt lat="46.419881" lon="14.223285">
        <ele>1902.776861952</ele>
        <time>2014-06-15T10:03:32Z</time>
      </trkpt>
      <trkpt lat="46.419605" lon="14.221890">
        <ele>1885.427072928</ele>
        <time>2014-06-15T10:06:41Z</time>
      </trkpt>
      <trkpt lat="46.419580" lon="14.220475">
        <ele>1873.0872229824</ele>
        <time>2014-06-15T10:09:50Z</time>
      </trkpt>
      <trkpt lat="46.419457" lon="14.219207">
        <ele>1848.1175266176</ele>
        <time>2014-06-15T10:13:52Z</time>
      </trkpt>
      <trkpt lat="46.419248" lon="14.217803">
        <ele>1828.4677655616</ele>
        <time>2014-06-15T10:16:39Z</time>
      </trkpt>
      <trkpt lat="46.418791" lon="14.217093">
        <ele>1794.4081797312</ele>
        <time>2014-06-15T10:19:35Z</time>
      </trkpt>
      <trkpt lat="46.418683" lon="14.215724">
        <ele>1752.5986881408</ele>
        <time>2014-06-15T10:23:16Z</time>
      </trkpt>
      <trkpt lat="46.418158" lon="14.215310">
        <ele>1710.8191961856</ele>
        <time>2014-06-15T10:28:49Z</time>
      </trkpt>
      <trkpt lat="46.417850" lon="14.214099">
        <ele>1671.579673344</ele>
        <time>2014-06-15T10:32:54Z</time>
      </trkpt>
      <trkpt lat="46.417816" lon="14.212551">
        <ele>1644.7999989888</ele>
        <time>2014-06-15T10:36:32Z</time>
      </trkpt>
      <trkpt lat="46.417717" lon="14.211870">
        <ele>1632.2201519616</ele>
        <time>2014-06-15T11:06:56Z</time>
      </trkpt>
      <trkpt lat="46.417693" lon="14.211826">
        <ele>1632.0901535424</ele>
        <time>2014-06-15T11:10:42Z</time>
      </trkpt>
      <trkpt lat="46.417859" lon="14.212048">
        <ele>1642.2000306048</ele>
        <time>2014-06-15T11:13:28Z</time>
      </trkpt>
      <trkpt lat="46.417931" lon="14.213504">
        <ele>1661.7197932416</ele>
        <time>2014-06-15T11:16:52Z</time>
      </trkpt>
      <trkpt lat="46.418130" lon="14.215113">
        <ele>1693.8994019328</ele>
        <time>2014-06-15T11:20:51Z</time>
      </trkpt>
      <trkpt lat="46.418446" lon="14.215734">
        <ele>1733.4689207616</ele>
        <time>2014-06-15T11:26:16Z</time>
      </trkpt>
      <trkpt lat="46.418667" lon="14.216497">
        <ele>1771.2984607488</ele>
        <time>2014-06-15T11:32:38Z</time>
      </trkpt>
      <trkpt lat="46.418998" lon="14.217509">
        <ele>1809.527995872</ele>
        <time>2014-06-15T11:40:02Z</time>
      </trkpt>
      <trkpt lat="46.419512" lon="14.218335">
        <ele>1841.97760128</ele>
        <time>2014-06-15T11:44:28Z</time>
      </trkpt>
      <trkpt lat="46.420100" lon="14.219420">
        <ele>1809.2379993984</ele>
        <time>2014-06-15T11:49:59Z</time>
      </trkpt>
      <trkpt lat="46.420629" lon="14.219925">
        <ele>1777.3683869376</ele>
        <time>2014-06-15T11:54:37Z</time>
      </trkpt>
      <trkpt lat="46.421324" lon="14.220429">
        <ele>1740.2088388032</ele>
        <time>2014-06-15T12:00:05Z</time>
      </trkpt>
      <trkpt lat="46.422237" lon="14.220624">
        <ele>1727.028999072</ele>
        <time>2014-06-15T12:03:45Z</time>
      </trkpt>
      <trkpt lat="46.422889" lon="14.221009">
        <ele>1714.9891454784</ele>
        <time>2014-06-15T12:08:15Z</time>
      </trkpt>
      <trkpt lat="46.423193" lon="14.222336">
        <ele>1684.8995113728</ele>
        <time>2014-06-15T12:11:21Z</time>
      </trkpt>
      <trkpt lat="46.423838" lon="14.223460">
        <ele>1681.9195476096</ele>
        <time>2014-06-15T12:14:36Z</time>
      </trkpt>
      <trkpt lat="46.424669" lon="14.223183">
        <ele>1682.1695445696</ele>
        <time>2014-06-15T12:17:35Z</time>
      </trkpt>
      <trkpt lat="46.424943" lon="14.223143">
        <ele>1689.9194503296</ele>
        <time>2014-06-15T12:19:19Z</time>
      </trkpt>
      <trkpt lat="46.424959" lon="14.223182">
        <ele>1712.2491787968</ele>
        <time>2014-06-15T12:20:54Z</time>
      </trkpt>
      <trkpt lat="46.425901" lon="14.223155">
        <ele>1737.078876864</ele>
        <time>2014-06-15T12:28:18Z</time>
      </trkpt>
      <trkpt lat="46.426552" lon="14.223735">
        <ele>1734.2389113984</ele>
        <time>2014-06-15T12:33:03Z</time>
      </trkpt>
      <trkpt lat="46.427313" lon="14.224348">
        <ele>1735.4388968064</ele>
        <time>2014-06-15T12:38:09Z</time>
      </trkpt>
      <trkpt lat="46.427529" lon="14.224989">
        <ele>1695.4493830848</ele>
        <time>2014-06-15T12:42:54Z</time>
      </trkpt>
      <trkpt lat="46.428053" lon="14.225488">
        <ele>1652.2099088832</ele>
        <time>2014-06-15T12:47:24Z</time>
      </trkpt>
      <trkpt lat="46.427920" lon="14.226552">
        <ele>1614.830363424</ele>
        <time>2014-06-15T12:51:22Z</time>
      </trkpt>
      <trkpt lat="46.427461" lon="14.227825">
        <ele>1603.9004963328</ele>
        <time>2014-06-15T12:53:42Z</time>
      </trkpt>
      <trkpt lat="46.427115" lon="14.229185">
        <ele>1588.5906825024</ele>
        <time>2014-06-15T12:56:06Z</time>
      </trkpt>
      <trkpt lat="46.427228" lon="14.230651">
        <ele>1583.4907445184</ele>
        <time>2014-06-15T12:58:58Z</time>
      </trkpt>
      <trkpt lat="46.427759" lon="14.231941">
        <ele>1582.2607594752</ele>
        <time>2014-06-15T13:01:37Z</time>
      </trkpt>
      <trkpt lat="46.428540" lon="14.232809">
        <ele>1557.881055936</ele>
        <time>2014-06-15T13:05:12Z</time>
      </trkpt>
      <trkpt lat="46.428964" lon="14.233753">
        <ele>1549.9211527296</ele>
        <time>2014-06-15T13:33:30Z</time>
      </trkpt>
      <trkpt lat="46.428500" lon="14.234222">
        <ele>1550.7211430016</ele>
        <time>2014-06-15T13:44:02Z</time>
      </trkpt>
      <trkpt lat="46.428396" lon="14.235455">
        <ele>1526.9114325312</ele>
        <time>2014-06-15T13:46:48Z</time>
      </trkpt>
      <trkpt lat="46.428197" lon="14.236476">
        <ele>1493.0518442688</ele>
        <time>2014-06-15T13:49:39Z</time>
      </trkpt>
      <trkpt lat="46.428163" lon="14.237686">
        <ele>1474.0220756736</ele>
        <time>2014-06-15T13:52:59Z</time>
      </trkpt>
      <trkpt lat="46.428138" lon="14.238874">
        <ele>1465.382180736</ele>
        <time>2014-06-15T13:56:26Z</time>
      </trkpt>
      <trkpt lat="46.427951" lon="14.240235">
        <ele>1442.9424536064</ele>
        <time>2014-06-15T13:59:01Z</time>
      </trkpt>
      <trkpt lat="46.428078" lon="14.240903">
        <ele>1418.582749824</ele>
        <time>2014-06-15T14:02:02Z</time>
      </trkpt>
      <trkpt lat="46.428246" lon="14.241748">
        <ele>1388.3231177856</ele>
        <time>2014-06-15T14:05:31Z</time>
      </trkpt>
      <trkpt lat="46.428347" lon="14.242464">
        <ele>1357.8234886656</ele>
        <time>2014-06-15T14:08:43Z</time>
      </trkpt>
      <trkpt lat="46.428945" lon="14.243192">
        <ele>1330.4938209984</ele>
        <time>2014-06-15T14:12:05Z</time>
      </trkpt>
      <trkpt lat="46.429750" lon="14.244170">
        <ele>1309.5240759936</ele>
        <time>2014-06-15T14:14:00Z</time>
      </trkpt>
      <trkpt lat="46.430140" lon="14.245377">
        <ele>1295.084251584</ele>
        <time>2014-06-15T14:15:52Z</time>
      </trkpt>
      <trkpt lat="46.430323" lon="14.246885">
        <ele>1278.4144542912</ele>
        <time>2014-06-15T14:17:33Z</time>
      </trkpt>
      <trkpt lat="46.430558" lon="14.248255">
        <ele>1264.2746262336</ele>
        <time>2014-06-15T14:19:19Z</time>
      </trkpt>
      <trkpt lat="46.430702" lon="14.249614">
        <ele>1244.5748657856</ele>
        <time>2014-06-15T14:21:36Z</time>
      </trkpt>
      <trkpt lat="46.430896" lon="14.250935">
        <ele>1228.285063872</ele>
        <time>2014-06-15T14:23:15Z</time>
      </trkpt>
      <trkpt lat="46.431171" lon="14.252293">
        <ele>1206.9753230016</ele>
        <time>2014-06-15T14:25:19Z</time>
      </trkpt>
      <trkpt lat="46.431503" lon="14.253591">
        <ele>1174.335719904</ele>
        <time>2014-06-15T14:27:37Z</time>
      </trkpt>
      <trkpt lat="46.431199" lon="14.255085">
        <ele>1155.8259449856</ele>
        <time>2014-06-15T14:29:33Z</time>
      </trkpt>
      <trkpt lat="46.431372" lon="14.256758">
        <ele>1131.7462377984</ele>
        <time>2014-06-15T14:31:47Z</time>
      </trkpt>
      <trkpt lat="46.431668" lon="14.258516">
        <ele>1101.6966032064</ele>
        <time>2014-06-15T14:34:34Z</time>
      </trkpt>
      <trkpt lat="46.431525" lon="14.260038">
        <ele>1085.7267974016</ele>
        <time>2014-06-15T14:36:41Z</time>
      </trkpt>
      <trkpt lat="46.430686" lon="14.260901">
        <ele>1080.836856864</ele>
        <time>2014-06-15T14:38:29Z</time>
      </trkpt>
      <trkpt lat="46.430588" lon="14.260943">
        <ele>1080.5968597824</ele>
        <time>2014-06-15T14:39:45Z</time>
      </trkpt>
    </trkseg>
  </trk>
</gpx>
